x

San Clemente Basin - 27nm Se Of San Clemente Is, Ca (46086) Wave Buoy

2:50pm - Mon 27th Jun 2016 All times are PDT. -7 hours from GMT.

  • Sig Wave height 4.9ft
  • Swell Direction
  • Peak Period 16s
  • Average Period 9s
  • Wind
    7mph, 9mph gusts
  • Sea Temp 69°f
  • Air Temp 63°f
  • Sea Pressure 1013mb
  • San Clemente Basin - 27nm Se Of San Clemente Is, Ca
  • San Clemente Basin - 27nm Se Of San Clemente Is, Ca

More Historic Weather Station data

Upgrade to MSW Pro to gain access to the past 30 days of data for over 8000 Wavebouys and Weather Stations around the globe.

Join Pro

Comparision Forecast

View Surf forecast
   
Mon 06/27 2:50pm 5ft 16s 9s 7 9 mph 1013mb 69f 63f
1:50pm 5ft 16s 9s 4 9 mph 1013.4mb 69f 63f
12:50pm 4.5ft 16s 8s 7 11 mph 1013.7mb 69f 63f
11:50am 4.5ft 16s 8s 2 4 mph 1013.9mb 68f 64f
10:50am 4.5ft 14s 9s 2 7 mph 1014.3mb 68f 63f
9:50am 5ft 16s 10s 2 7 mph 1013.9mb 68f 63f
8:50am 4ft 16s 9s 2 7 mph 1013.5mb 68f 62f
7:50am 4.5ft 16s 9s  -  2 mph 1013.6mb 68f 62f
6:50am 4.5ft 15s 9s 4 7 mph 1013.2mb 68f 62f
5:50am 4.5ft 16s 9s 2 7 mph 1012.5mb 68f 62f
4:50am 4.5ft 16s 9s  -  mph 1012.2mb 69f 62f
3:50am 4.5ft 17s 9s 2 4 mph 1012.1mb 69f 62f
2:50am 4.5ft 17s 9s 4 7 mph 1012mb 69f 63f
1:50am 5ft 16s 9s 2 4 mph 1012.1mb 69f 63f
12:50am 5ft 17s 9s 2 4 mph 1012.2mb 69f 63f
Sun 06/26 11:50pm 5ft 17s 9s 2 4 mph 1012.8mb 69f 63f
10:50pm 5.5ft 16s 9s 2 4 mph 1012.8mb 69f 63f
9:50pm 5ft 16s 9s 4 7 mph 1012.7mb 69f 63f
8:50pm 5.5ft 17s 9s 2 4 mph 1012.4mb 69f 63f
7:50pm 6ft 17s 9s 4 7 mph 1011.9mb 69f 63f
6:50pm 5.5ft 16s 8s 4 7 mph 1011.9mb 69f 63f
5:50pm 6.5ft 17s 9s 4 9 mph 1011.8mb 69f 63f
4:50pm 6ft 16s 9s 2 7 mph 1012.1mb 69f 63f
3:50pm 6.5ft 16s 10s 4 7 mph 1012.5mb 69f 64f
2:50pm 6ft 17s 9s 4 7 mph 1012.7mb 69f 64f
1:50pm 5.5ft 17s 9s 7 9 mph 1012.6mb 69f 64f
12:50pm 5.5ft 17s 9s 7 9 mph 1013.1mb 69f 64f
11:50am 6ft 17s 10s 7 9 mph 1013.1mb 69f 64f
10:50am 5.5ft 17s 10s 7 9 mph 1012.8mb 69f 64f
9:50am 6ft 16s 10s 7 9 mph 1012.5mb 69f 64f
8:50am 6.5ft 17s 9s 2 4 mph 1012.4mb 69f 65f
7:50am 6.5ft 17s 9s 2 7 mph 1012mb 69f 65f
6:50am 5.5ft 17s 9s 2 4 mph 1011.2mb 68f 65f
5:50am 6ft 17s 9s 2 4 mph 1011mb 69f 64f
4:50am 6ft 17s 9s 2 7 mph 1010.9mb 69f 64f
3:50am 5ft 17s 9s  -  2 mph 1010.7mb 69f 63f
2:50am 6ft 17s 10s  -  4 mph 1010.7mb 69f 63f
12:50am 6ft 19s 10s 2 4 mph 1011.4mb 69f 64f
Sat 06/25 11:50pm 5.5ft 17s 9s 2 4 mph 1011.4mb 69f 63f
10:50pm 6ft 16s 9s 2 4 mph 1011.5mb 69f 63f
9:50pm 7ft 16s 10s 2 4 mph 1011.3mb 69f 63f
8:50pm 6ft 16s 9s  -  2 mph 1011mb 69f 63f
7:50pm 7.5ft 17s 10s 2 4 mph 1010.4mb 69f 63f
6:50pm 7ft 17s 10s 2 7 mph 1010.4mb 69f 64f
5:50pm 7ft 15s 9s 2 7 mph 1010.5mb 70f 64f
4:50pm 6.5ft 17s 9s 4 9 mph 1010.7mb 70f 64f
3:50pm 6ft 17s 9s 4 7 mph 1011.1mb 71f 64f
2:50pm 6.5ft 16s 9s 2 7 mph 1011.4mb 71f 64f
1:50pm 6.5ft 16s 9s 2 7 mph 1011.6mb 70f 64f
12:50pm 7ft 17s 10s 2 4 mph 1011.7mb 68f 64f
10:50am 7ft 19s 9s 2 7 mph 1012.1mb 68f 63f
9:50am 7ft 16s 9s 2 4 mph 1011.8mb 68f 63f
8:50am 7ft 17s 9s 4 7 mph 1011.9mb 67f 62f
7:50am 7ft 17s 9s 4 7 mph 1011.6mb 67f 62f
6:50am 7ft 19s 9s 2 7 mph 1011.3mb 67f 62f
5:50am 7ft 17s 9s  -  4 mph 1011mb 68f 62f
4:50am 7.5ft 19s 10s 2 7 mph 1010.7mb 68f 62f
3:50am 6.5ft 17s 9s 4 9 mph 1010.7mb 68f 62f
2:50am 7ft 17s 9s 2 4 mph 1010.8mb 68f 62f
1:50am 7ft 17s 9s 2 4 mph 1011.3mb 68f 62f
12:50am 7ft 17s 9s 4 7 mph 1011.6mb 68f 62f
Fri 06/24 11:50pm 6.5ft 15s 9s 2 4 mph 1011.9mb 68f 62f
10:50pm 7.5ft 17s 10s 2 4 mph 1012.3mb 68f 62f
9:50pm 7ft 17s 9s 2 7 mph 1012mb 68f 62f
8:50pm 7ft 17s 9s 4 7 mph 1011.8mb 68f 62f
7:50pm 6ft 19s 9s 4 9 mph 1011.8mb 68f 62f
6:50pm 7ft 16s 10s 7 9 mph 1011.8mb 67f 62f
5:50pm 7ft 17s 10s 7 11 mph 1012.1mb 67f 62f
4:50pm 7ft 17s 9s 9 11 mph 1012.7mb 67f 63f
3:50pm 7ft 17s 10s 7 9 mph 1013.4mb 67f 62f
2:50pm 6ft 17s 9s 4 7 mph 1013.9mb 67f 62f
1:50pm 6.5ft 16s 9s 7 9 mph 1014.2mb 67f 62f
12:50pm 7ft 17s 10s 7 11 mph 1014.3mb 68f 62f
11:50am 6.5ft 17s 9s 4 9 mph 1014.7mb 68f 62f
10:50am 5.5ft 17s 9s 4 7 mph 1014.6mb 67f 62f
9:50am 7ft 17s 9s 2 7 mph 1014.5mb 67f 62f
8:50am 6ft 16s 9s 4 7 mph 1014.6mb 67f 61f
7:50am 6ft 16s 10s 4 7 mph 1014.4mb 67f 61f
6:50am 6ft 17s 10s 4 7 mph 1013.7mb 67f 61f
5:50am 6ft 17s 11s 4 7 mph 1013.2mb 67f 61f
4:50am 5ft 16s 10s 2 4 mph 1013.2mb 67f 61f
3:50am 6ft 17s 11s 2 4 mph 1013.2mb 67f 61f
2:50am 6ft 17s 11s 4 9 mph 1013.4mb 67f 61f
1:50am 5ft 17s 10s 4 9 mph 1013.8mb 67f 61f
12:50am 6ft 17s 11s 2 7 mph 1013.7mb 67f 61f
Thu 06/23 11:50pm 5ft 17s 10s 2 7 mph 1014.3mb 67f 61f
10:50pm 5.5ft 17s 10s 2 4 mph 1014.1mb 67f 61f